createdAt,value
2018-03-31T00:00:31.600Z,18.33
2018-03-31T00:02:59.440Z,18.98
2018-03-31T00:05:27.291Z,13.18
2018-03-31T00:07:55.151Z,13.30
2018-03-31T00:10:23.011Z,11.18
2018-03-31T00:12:50.854Z,13.00
2018-03-31T00:15:18.698Z,12.80
2018-03-31T00:17:46.568Z,13.75
2018-03-31T00:20:14.420Z,10.77
2018-03-31T00:22:42.546Z,13.55
2018-03-31T00:25:10.403Z,11.10
2018-03-31T00:27:38.283Z,12.32
2018-03-31T00:30:06.143Z,11.05
2018-03-31T00:32:34.587Z,11.73
2018-03-31T00:35:02.450Z,13.43
2018-03-31T00:37:30.299Z,13.25
2018-03-31T00:39:58.363Z,11.73
2018-03-31T00:42:26.215Z,12.48
2018-03-31T00:44:54.048Z,13.93
2018-03-31T00:47:21.947Z,11.65
2018-03-31T00:49:49.784Z,10.68
2018-03-31T00:52:17.662Z,11.12
2018-03-31T00:54:45.500Z,10.57
2018-03-31T00:57:13.363Z,9.60
2018-03-31T00:59:41.218Z,14.32
2018-03-31T01:02:09.083Z,9.43
2018-03-31T01:04:36.915Z,14.82
2018-03-31T01:07:04.767Z,10.95
2018-03-31T01:09:32.625Z,11.00
2018-03-31T01:12:00.483Z,9.77
2018-03-31T01:14:28.307Z,13.20
2018-03-31T01:16:56.204Z,10.20
2018-03-31T01:19:23.983Z,12.82
2018-03-31T01:21:51.839Z,11.30
2018-03-31T01:24:19.753Z,10.55
2018-03-31T01:26:47.634Z,13.95
2018-03-31T01:29:15.608Z,9.25
2018-03-31T01:31:43.423Z,8.88
2018-03-31T01:34:11.483Z,8.57
2018-03-31T01:36:39.300Z,9.40
2018-03-31T01:39:07.348Z,8.80
2018-03-31T01:41:35.174Z,16.12
2018-03-31T01:44:03.008Z,9.57
2018-03-31T01:46:30.875Z,10.25
2018-03-31T01:48:58.732Z,12.68
2018-03-31T01:51:26.580Z,8.43
2018-03-31T01:53:54.411Z,9.38
2018-03-31T01:56:22.274Z,8.45
2018-03-31T01:58:50.103Z,11.32
2018-03-31T02:01:19.771Z,11.57
2018-03-31T02:03:47.674Z,14.60
2018-03-31T02:06:15.491Z,10.05
2018-03-31T02:08:43.351Z,11.32
2018-03-31T02:11:11.204Z,10.27
2018-03-31T02:13:39.039Z,10.57
2018-03-31T02:16:06.907Z,12.55
2018-03-31T02:18:34.783Z,11.30
2018-03-31T02:21:02.642Z,8.75
2018-03-31T02:23:30.539Z,7.72
2018-03-31T02:25:58.416Z,10.70
2018-03-31T02:28:26.297Z,11.48
2018-03-31T02:30:54.238Z,10.23
2018-03-31T02:33:22.072Z,9.95
2018-03-31T02:35:50.270Z,8.93
2018-03-31T02:38:18.156Z,9.90
2018-03-31T02:40:46.044Z,10.43
2018-03-31T02:43:13.913Z,8.90
2018-03-31T02:45:41.748Z,12.20
2018-03-31T02:48:09.636Z,11.00
2018-03-31T02:50:37.471Z,11.55
2018-03-31T02:53:05.291Z,10.45
2018-03-31T02:55:33.190Z,9.63
2018-03-31T02:58:01.136Z,9.23
2018-03-31T03:00:29.020Z,9.27
2018-03-31T03:02:56.868Z,11.23
2018-03-31T03:05:24.733Z,10.95
2018-03-31T03:07:52.576Z,11.93
2018-03-31T03:10:20.414Z,12.75
2018-03-31T03:12:48.267Z,9.65
2018-03-31T03:15:16.100Z,10.13
2018-03-31T03:17:43.921Z,10.40
2018-03-31T03:20:11.982Z,9.75
2018-03-31T03:22:39.831Z,12.20
2018-03-31T03:25:07.704Z,11.88
2018-03-31T03:27:35.804Z,11.00
2018-03-31T03:30:03.656Z,9.13
2018-03-31T03:32:31.487Z,11.15
2018-03-31T03:34:59.528Z,11.43
2018-03-31T03:37:27.776Z,9.35
2018-03-31T03:39:55.611Z,16.42
2018-03-31T03:42:23.651Z,10.90
2018-03-31T03:44:51.488Z,14.32
2018-03-31T03:47:19.308Z,14.13
2018-03-31T03:49:47.142Z,11.93
2018-03-31T03:52:14.977Z,12.57
2018-03-31T03:54:42.815Z,9.63
2018-03-31T03:57:10.635Z,15.05
2018-03-31T03:59:38.460Z,11.18
2018-03-31T04:02:06.316Z,13.75
2018-03-31T04:04:34.148Z,10.15
2018-03-31T04:07:02.028Z,12.65
2018-03-31T04:09:29.854Z,12.82
2018-03-31T04:11:57.702Z,17.42
2018-03-31T04:14:25.571Z,12.05
2018-03-31T04:16:53.447Z,11.07
2018-03-31T04:19:21.299Z,12.43
2018-03-31T04:21:49.171Z,12.90
2018-03-31T04:24:17.007Z,14.10
2018-03-31T04:26:44.865Z,11.70
2018-03-31T04:29:12.736Z,13.90
2018-03-31T04:31:40.617Z,11.95
2018-03-31T04:34:08.463Z,13.02
2018-03-31T04:36:36.374Z,17.42
2018-03-31T04:39:04.903Z,12.20
2018-03-31T04:41:32.743Z,14.10
2018-03-31T04:44:00.596Z,18.37
2018-03-31T04:46:28.457Z,13.02
2018-03-31T04:48:56.314Z,15.07
2018-03-31T04:51:24.159Z,11.38
2018-03-31T04:53:52.239Z,11.40
2018-03-31T04:56:20.080Z,12.02
2018-03-31T04:58:47.903Z,14.77
2018-03-31T05:01:15.773Z,11.40
2018-03-31T05:03:43.615Z,12.77
2018-03-31T05:06:11.565Z,18.62
2018-03-31T05:08:39.443Z,13.68
2018-03-31T05:11:07.315Z,10.35
2018-03-31T05:13:35.155Z,13.25
2018-03-31T05:16:03.031Z,13.32
2018-03-31T05:18:30.887Z,12.85
2018-03-31T05:20:58.751Z,11.00
2018-03-31T05:23:26.806Z,16.65
2018-03-31T05:25:54.671Z,13.40
2018-03-31T05:28:22.512Z,14.87
2018-03-31T05:30:50.339Z,12.65
2018-03-31T05:33:18.207Z,11.88
2018-03-31T05:35:46.087Z,14.68
2018-03-31T05:38:13.903Z,17.08
2018-03-31T05:40:42.159Z,13.00
2018-03-31T05:43:10.006Z,11.40
2018-03-31T05:45:37.868Z,14.10
2018-03-31T05:48:05.732Z,13.48
2018-03-31T05:50:33.600Z,14.87
2018-03-31T05:53:01.718Z,14.40
2018-03-31T05:55:29.662Z,13.07
2018-03-31T05:57:57.516Z,11.38
2018-03-31T06:00:25.391Z,14.55
2018-03-31T06:02:53.239Z,12.00
2018-03-31T06:05:21.076Z,15.48
2018-03-31T06:07:48.911Z,11.35
2018-03-31T06:10:16.796Z,13.98
2018-03-31T06:12:44.639Z,16.60
2018-03-31T06:15:12.520Z,11.00
2018-03-31T06:17:40.719Z,11.30
2018-03-31T06:20:08.556Z,14.15
2018-03-31T06:22:36.380Z,13.95
2018-03-31T06:25:04.250Z,11.18
2018-03-31T06:27:32.088Z,11.07
2018-03-31T06:29:59.931Z,14.07
2018-03-31T06:32:27.864Z,10.18
2018-03-31T06:34:55.732Z,10.93
2018-03-31T06:37:23.619Z,13.25
2018-03-31T06:39:51.456Z,11.70
2018-03-31T06:42:19.807Z,12.88
2018-03-31T06:44:47.640Z,10.93
2018-03-31T06:47:15.480Z,15.48
2018-03-31T06:49:43.344Z,12.77
2018-03-31T06:52:11.168Z,11.70
2018-03-31T06:54:39.031Z,11.73
2018-03-31T06:57:06.878Z,10.43
2018-03-31T06:59:34.735Z,10.48
2018-03-31T07:02:02.599Z,13.27
2018-03-31T07:04:30.455Z,9.55
2018-03-31T07:06:58.359Z,11.05
2018-03-31T07:09:26.259Z,9.73
2018-03-31T07:11:54.136Z,9.50
2018-03-31T07:14:22.011Z,10.35
2018-03-31T07:16:49.873Z,16.77
2018-03-31T07:19:17.903Z,10.60
2018-03-31T07:21:45.762Z,16.15
2018-03-31T07:24:13.604Z,13.02
2018-03-31T07:26:41.463Z,20.33
2018-03-31T07:29:09.296Z,12.15
2018-03-31T07:31:37.131Z,10.35
2018-03-31T07:34:05.260Z,16.75
2018-03-31T07:36:33.140Z,10.20
2018-03-31T07:39:01.011Z,22.80
2018-03-31T07:41:28.883Z,14.98
2018-03-31T07:43:56.989Z,11.73
2018-03-31T07:46:24.891Z,19.83
2018-03-31T07:48:52.800Z,14.87
2018-03-31T07:51:20.692Z,13.27
2018-03-31T07:53:48.543Z,11.60
2018-03-31T07:56:16.399Z,9.20
2018-03-31T07:58:44.216Z,13.32
2018-03-31T08:01:12.078Z,12.63
2018-03-31T08:03:40.231Z,12.25
2018-03-31T08:06:08.107Z,13.25
2018-03-31T08:08:35.959Z,10.75
2018-03-31T08:11:04.146Z,10.30
2018-03-31T08:13:31.987Z,14.75
2018-03-31T08:15:59.847Z,12.52
2018-03-31T08:18:27.969Z,10.88
2018-03-31T08:20:55.844Z,12.00
2018-03-31T08:23:23.700Z,12.45
2018-03-31T08:25:51.610Z,18.37
2018-03-31T08:28:19.479Z,10.03
2018-03-31T08:30:47.337Z,9.43
2018-03-31T08:33:15.177Z,14.57
2018-03-31T08:35:43.179Z,13.65
2018-03-31T08:38:11.008Z,10.65
2018-03-31T08:40:38.867Z,10.88
2018-03-31T08:43:06.731Z,11.43
2018-03-31T08:45:35.154Z,10.32
2018-03-31T08:48:02.976Z,10.68
2018-03-31T08:50:30.835Z,11.45
2018-03-31T08:52:58.672Z,10.35
2018-03-31T08:55:26.510Z,11.02
2018-03-31T08:57:54.460Z,10.70
2018-03-31T09:00:22.347Z,12.57
2018-03-31T09:02:50.225Z,11.15
2018-03-31T09:05:18.079Z,10.20
2018-03-31T09:07:45.932Z,9.57
2018-03-31T09:10:13.779Z,11.95
2018-03-31T09:12:41.614Z,10.93
2018-03-31T09:15:09.492Z,13.77
2018-03-31T09:17:37.343Z,12.25
2018-03-31T09:20:05.185Z,11.05
2018-03-31T09:22:33.040Z,11.82
2018-03-31T09:25:00.909Z,13.77
2018-03-31T09:27:28.751Z,13.60
2018-03-31T09:29:56.755Z,14.80
2018-03-31T09:32:24.595Z,16.37
2018-03-31T09:34:52.611Z,14.87
2018-03-31T09:37:20.479Z,12.77
2018-03-31T09:39:48.362Z,13.73
2018-03-31T09:42:16.191Z,12.57
2018-03-31T09:44:44.416Z,16.15
2018-03-31T09:47:12.703Z,14.40
2018-03-31T09:49:40.588Z,19.85
2018-03-31T09:52:08.475Z,14.45
2018-03-31T09:54:36.328Z,16.95
2018-03-31T09:57:04.163Z,18.15
2018-03-31T09:59:32.010Z,16.70
2018-03-31T10:01:59.931Z,14.45
2018-03-31T10:04:27.779Z,19.25
2018-03-31T10:06:55.702Z,16.15
2018-03-31T10:09:23.571Z,13.75
2018-03-31T10:11:51.403Z,20.92
2018-03-31T10:14:19.246Z,18.62
2018-03-31T10:16:47.109Z,22.40
2018-03-31T10:19:14.942Z,20.45
2018-03-31T10:21:42.778Z,25.62
2018-03-31T10:24:10.640Z,23.33
2018-03-31T10:26:38.467Z,24.33
2018-03-31T10:29:06.512Z,20.50
2018-03-31T10:31:34.341Z,18.58
2018-03-31T10:34:02.183Z,30.45
2018-03-31T10:36:30.671Z,26.05
2018-03-31T10:38:58.528Z,19.23
2018-03-31T10:41:26.415Z,26.60
2018-03-31T10:43:54.271Z,21.52
2018-03-31T10:46:22.150Z,22.80
2018-03-31T10:48:50.267Z,21.02
2018-03-31T10:51:18.151Z,20.20
2018-03-31T10:53:46.026Z,22.83
2018-03-31T10:56:13.903Z,27.50
2018-03-31T10:58:41.756Z,26.52
2018-03-31T11:01:09.595Z,25.45
2018-03-31T11:03:37.431Z,25.10
2018-03-31T11:06:05.307Z,25.40
2018-03-31T11:08:33.231Z,33.55
2018-03-31T11:11:01.074Z,36.53
2018-03-31T11:13:28.920Z,37.60
2018-03-31T11:15:56.768Z,33.38
2018-03-31T11:18:24.643Z,35.03
2018-03-31T11:20:52.489Z,31.30
2018-03-31T11:23:20.362Z,34.38
2018-03-31T11:25:48.223Z,30.30
2018-03-31T11:28:16.057Z,36.05
2018-03-31T11:30:43.933Z,29.90
2018-03-31T11:33:11.775Z,22.20
2018-03-31T11:35:39.602Z,20.10
2018-03-31T11:38:07.502Z,21.02
2018-03-31T11:40:35.351Z,22.10
2018-03-31T11:43:03.475Z,21.73
2018-03-31T11:45:31.311Z,21.00
2018-03-31T11:47:59.139Z,21.00
2018-03-31T11:50:27.409Z,23.52
2018-03-31T11:52:55.230Z,21.37
2018-03-31T11:55:23.079Z,19.73
2018-03-31T11:57:50.950Z,20.70
2018-03-31T12:00:18.829Z,26.60
2018-03-31T12:02:46.663Z,19.50
2018-03-31T12:05:14.520Z,18.55
2018-03-31T12:07:42.355Z,16.30
2018-03-31T12:10:10.242Z,20.63
2018-03-31T12:12:38.160Z,19.80
2018-03-31T12:15:06.007Z,16.87
2018-03-31T12:17:33.855Z,17.37
2018-03-31T12:20:01.972Z,14.63
2018-03-31T12:22:29.823Z,19.30
2018-03-31T12:24:57.675Z,19.02
2018-03-31T12:27:25.539Z,21.37
2018-03-31T12:29:53.407Z,22.58
2018-03-31T12:32:21.259Z,19.90
2018-03-31T12:34:49.296Z,26.60
2018-03-31T12:37:17.379Z,21.05
2018-03-31T12:39:45.263Z,21.42
2018-03-31T12:42:13.131Z,23.60
2018-03-31T12:44:40.992Z,19.02
2018-03-31T12:47:08.911Z,19.85
2018-03-31T12:49:36.766Z,29.77
2018-03-31T12:52:04.976Z,23.05
2018-03-31T12:54:32.836Z,20.90
2018-03-31T12:57:00.719Z,23.95
2018-03-31T12:59:28.752Z,17.02
2018-03-31T13:01:56.652Z,22.80
2018-03-31T13:04:24.503Z,19.17
2018-03-31T13:06:52.317Z,20.90
2018-03-31T13:09:20.142Z,19.75
2018-03-31T13:11:47.997Z,20.73
2018-03-31T13:14:15.944Z,23.92
2018-03-31T13:16:43.799Z,19.60
2018-03-31T13:19:11.630Z,20.23
2018-03-31T13:21:39.530Z,19.48
2018-03-31T13:24:07.359Z,21.58
2018-03-31T13:26:35.211Z,23.08
2018-03-31T13:29:03.303Z,19.67
2018-03-31T13:31:31.135Z,20.00
2018-03-31T13:33:58.977Z,15.33
2018-03-31T13:36:26.807Z,20.70
2018-03-31T13:38:54.679Z,18.77
2018-03-31T13:41:22.500Z,16.62
2018-03-31T13:43:50.427Z,23.62
2018-03-31T13:46:18.255Z,17.45
2018-03-31T13:48:46.122Z,17.90
2018-03-31T13:51:13.982Z,15.98
2018-03-31T13:53:42.168Z,16.20
2018-03-31T13:56:10.843Z,17.12
2018-03-31T13:58:38.687Z,18.37
2018-03-31T14:01:06.526Z,18.60
2018-03-31T14:03:34.375Z,15.88
2018-03-31T14:06:02.222Z,18.33
2018-03-31T14:08:30.106Z,16.10
2018-03-31T14:10:57.941Z,17.30
2018-03-31T14:13:25.912Z,16.10
2018-03-31T14:15:53.747Z,17.00
2018-03-31T14:18:21.578Z,20.45
2018-03-31T14:20:49.528Z,16.42
2018-03-31T14:23:17.351Z,16.10
2018-03-31T14:25:45.204Z,18.15
2018-03-31T14:28:13.067Z,16.58
2018-03-31T14:30:40.895Z,22.05
2018-03-31T14:33:08.728Z,16.00
2018-03-31T14:35:36.608Z,16.90
2018-03-31T14:38:04.494Z,14.63
2018-03-31T14:40:32.347Z,16.40
2018-03-31T14:43:00.208Z,16.23
2018-03-31T14:45:28.044Z,17.90
2018-03-31T14:47:55.889Z,15.98
2018-03-31T14:50:23.711Z,22.13
2018-03-31T14:52:51.599Z,16.27
2018-03-31T14:55:19.859Z,17.40
2018-03-31T14:57:48.019Z,15.82
2018-03-31T15:00:15.844Z,16.33
2018-03-31T15:02:43.716Z,17.75
2018-03-31T15:05:11.574Z,18.92
2018-03-31T15:07:39.447Z,22.27
2018-03-31T15:10:07.292Z,20.17
2018-03-31T15:12:35.171Z,20.58
2018-03-31T15:15:03.024Z,16.80
2018-03-31T15:17:30.883Z,19.15
2018-03-31T15:19:58.721Z,30.42
2018-03-31T15:22:26.580Z,25.23
2018-03-31T15:24:54.426Z,23.15
2018-03-31T15:27:22.286Z,19.92
2018-03-31T15:29:50.167Z,19.20
2018-03-31T15:32:17.998Z,19.87
2018-03-31T15:34:47.312Z,23.12
2018-03-31T15:37:17.632Z,28.02
2018-03-31T15:39:47.916Z,42.25
2018-03-31T15:42:18.386Z,30.00
2018-03-31T15:44:48.162Z,26.35
2018-03-31T15:47:16.430Z,20.33
2018-03-31T15:49:44.288Z,24.27
2018-03-31T15:52:12.143Z,20.98
2018-03-31T15:54:40.011Z,21.40
2018-03-31T15:57:08.297Z,20.80
2018-03-31T15:59:36.384Z,16.42
2018-03-31T16:02:04.247Z,19.92
2018-03-31T16:04:32.094Z,15.07
2018-03-31T16:06:59.983Z,25.23
2018-03-31T16:09:27.823Z,17.35
2018-03-31T16:11:55.687Z,26.17
2018-03-31T16:14:23.536Z,22.60
2018-03-31T16:16:51.368Z,21.77
2018-03-31T16:19:19.466Z,26.30
2018-03-31T16:21:47.342Z,24.08
2018-03-31T16:24:15.155Z,22.98
2018-03-31T16:26:43.033Z,22.50
2018-03-31T16:29:10.917Z,19.17
2018-03-31T16:31:38.737Z,19.85
2018-03-31T16:34:06.579Z,23.40
2018-03-31T16:36:34.427Z,25.83
2018-03-31T16:39:02.256Z,23.45
2018-03-31T16:41:30.134Z,25.58
2018-03-31T16:43:58.666Z,21.50
2018-03-31T16:46:27.981Z,26.77
2018-03-31T16:48:55.876Z,17.67
2018-03-31T16:51:23.751Z,24.60
2018-03-31T16:53:51.634Z,16.98
2018-03-31T16:56:19.701Z,13.18
2018-03-31T16:58:47.826Z,18.42
2018-03-31T17:01:15.707Z,22.98
2018-03-31T17:03:43.807Z,23.80
2018-03-31T17:06:11.828Z,22.27
2018-03-31T17:10:03.474Z,21.77
2018-03-31T17:12:31.331Z,20.80
2018-03-31T17:14:59.363Z,20.53
2018-03-31T17:17:27.199Z,18.40
2018-03-31T17:19:55.042Z,17.37
2018-03-31T17:22:22.892Z,14.65
2018-03-31T17:24:50.736Z,19.35
2018-03-31T17:27:18.592Z,15.40
2018-03-31T17:29:46.419Z,18.27
2018-03-31T17:32:14.268Z,23.75
2018-03-31T17:34:42.283Z,14.25
2018-03-31T17:37:10.148Z,24.17
2018-03-31T17:39:38.023Z,24.17
2018-03-31T17:42:05.915Z,26.85
2018-03-31T17:44:33.795Z,33.95
2018-03-31T17:47:01.669Z,69.97
2018-03-31T17:49:29.515Z,61.95
2018-03-31T17:51:57.389Z,30.60
2018-03-31T17:54:25.269Z,22.42
2018-03-31T17:56:53.115Z,69.53
2018-03-31T17:59:21.175Z,108.87
2018-03-31T18:01:49.043Z,94.75
2018-03-31T18:04:16.879Z,65.70
2018-03-31T18:06:44.735Z,37.22
2018-03-31T18:09:12.609Z,35.22
2018-03-31T18:11:40.462Z,34.70
2018-03-31T18:14:08.344Z,56.77
2018-03-31T18:16:36.244Z,56.88
2018-03-31T18:19:04.079Z,69.80
2018-03-31T18:21:31.931Z,49.10
2018-03-31T18:23:59.779Z,41.53
2018-03-31T18:26:27.615Z,28.20
2018-03-31T18:28:55.501Z,36.13
2018-03-31T18:31:23.359Z,97.10
2018-03-31T18:33:51.261Z,88.35
2018-03-31T18:36:19.080Z,60.17
2018-03-31T18:38:46.910Z,54.25
2018-03-31T18:41:15.146Z,45.23
2018-03-31T18:43:42.992Z,40.80
2018-03-31T18:46:10.891Z,57.65
2018-03-31T18:48:38.777Z,46.83
2018-03-31T18:51:06.629Z,44.47
2018-03-31T18:53:34.470Z,58.72
2018-03-31T18:56:02.347Z,60.53
2018-03-31T18:58:30.199Z,212.10
2018-03-31T19:00:58.352Z,208.35
2018-03-31T19:03:26.208Z,131.23
2018-03-31T19:05:54.043Z,116.97
2018-03-31T19:08:21.889Z,299.85
2018-03-31T19:10:49.755Z,378.73
2018-03-31T19:13:17.583Z,230.57
2018-03-31T19:15:45.451Z,100.55
2018-03-31T19:18:13.304Z,38.65
2018-03-31T19:20:41.168Z,22.40
2018-03-31T19:23:09.004Z,16.95
2018-03-31T19:25:37.034Z,41.95
2018-03-31T19:28:04.874Z,68.93
2018-03-31T19:30:38.921Z,48.47
2018-03-31T19:33:06.801Z,34.25
2018-03-31T19:35:40.874Z,24.00
2018-03-31T19:40:39.868Z,27.20
2018-03-31T19:43:07.727Z,33.85
2018-03-31T19:45:35.608Z,35.90
2018-03-31T19:48:03.447Z,34.75
2018-03-31T19:50:31.974Z,31.17
2018-03-31T19:53:02.433Z,28.62
2018-03-31T19:55:31.159Z,28.95
2018-03-31T19:57:58.999Z,35.08
2018-03-31T20:00:26.831Z,31.80
2018-03-31T20:02:55.182Z,29.58
2018-03-31T20:05:23.020Z,27.77
2018-03-31T20:07:52.527Z,33.80
2018-03-31T20:10:21.134Z,26.35
2018-03-31T20:12:48.970Z,30.77
2018-03-31T20:15:16.865Z,26.37
2018-03-31T20:17:44.715Z,31.80
2018-03-31T20:20:12.590Z,27.92
2018-03-31T20:22:40.439Z,19.50
2018-03-31T20:25:08.275Z,20.92
2018-03-31T20:27:36.123Z,18.02
2018-03-31T20:30:04.280Z,26.95
2018-03-31T20:32:32.121Z,22.67
2018-03-31T20:34:59.975Z,24.37
2018-03-31T20:37:27.829Z,22.70
2018-03-31T20:39:55.662Z,19.40
2018-03-31T20:42:23.490Z,22.83
2018-03-31T20:44:51.332Z,21.27
2018-03-31T20:47:19.183Z,26.25
2018-03-31T20:49:47.031Z,37.20
2018-03-31T20:52:14.876Z,32.20
2018-03-31T20:54:42.751Z,27.37
2018-03-31T20:57:10.583Z,32.05
2018-03-31T20:59:38.446Z,29.27
2018-03-31T21:02:06.668Z,35.47
2018-03-31T21:04:34.522Z,28.35
2018-03-31T21:07:02.405Z,23.50
2018-03-31T21:09:30.254Z,25.83
2018-03-31T21:11:58.122Z,20.52
2018-03-31T21:14:25.963Z,24.02
2018-03-31T21:16:53.834Z,21.00
2018-03-31T21:19:21.667Z,24.80
2018-03-31T21:21:49.532Z,24.80
2018-03-31T21:24:17.653Z,21.98
2018-03-31T21:26:45.475Z,26.75
2018-03-31T21:29:13.327Z,29.23
2018-03-31T21:31:41.166Z,27.30
2018-03-31T21:34:09.064Z,24.25
2018-03-31T21:36:36.935Z,23.40
2018-03-31T21:39:04.784Z,23.20
2018-03-31T21:41:32.643Z,19.58
2018-03-31T21:44:00.551Z,19.60
2018-03-31T21:46:28.396Z,21.25
2018-03-31T21:48:56.239Z,23.05
2018-03-31T21:51:24.110Z,18.80
2018-03-31T21:53:51.976Z,22.13
2018-03-31T21:56:19.845Z,21.52
2018-03-31T21:58:47.709Z,23.87
2018-03-31T22:01:15.578Z,23.98
2018-03-31T22:03:43.441Z,21.73
2018-03-31T22:06:11.797Z,21.92
2018-03-31T22:08:39.643Z,18.27
2018-03-31T22:11:07.508Z,21.40
2018-03-31T22:13:41.702Z,25.90
2018-03-31T22:16:09.639Z,20.30
2018-03-31T22:18:37.464Z,18.83
2018-03-31T22:21:05.614Z,23.95
2018-03-31T22:23:33.424Z,26.17
2018-03-31T22:26:01.275Z,29.70
2018-03-31T22:28:29.143Z,36.72
2018-03-31T22:30:56.990Z,38.15
2018-03-31T22:33:24.839Z,20.85
2018-03-31T22:35:52.680Z,18.15
2018-03-31T22:38:20.567Z,17.35
2018-03-31T22:40:48.417Z,15.63
2018-03-31T22:43:16.255Z,18.23
2018-03-31T22:45:44.106Z,21.23
2018-03-31T22:48:12.009Z,18.92
2018-03-31T22:50:39.844Z,27.75
2018-03-31T22:53:07.682Z,22.52
2018-03-31T22:55:35.543Z,20.40
2018-03-31T22:58:03.439Z,18.45
2018-03-31T23:00:31.296Z,20.02
2018-03-31T23:02:59.164Z,17.90
2018-03-31T23:05:27.445Z,25.98
2018-03-31T23:07:55.729Z,28.10
2018-03-31T23:10:23.556Z,20.52
2018-03-31T23:12:51.442Z,22.83
2018-03-31T23:15:19.264Z,23.23
2018-03-31T23:17:47.107Z,21.60
2018-03-31T23:20:14.995Z,21.92
2018-03-31T23:22:43.023Z,18.80
2018-03-31T23:25:10.875Z,17.55
2018-03-31T23:27:38.751Z,17.80
2018-03-31T23:30:06.596Z,17.98
2018-03-31T23:32:34.451Z,17.83
2018-03-31T23:35:02.307Z,19.08
2018-03-31T23:37:30.159Z,18.25
2018-03-31T23:39:58.024Z,16.27
2018-03-31T23:42:25.891Z,17.50
2018-03-31T23:44:53.731Z,17.10
2018-03-31T23:47:21.947Z,17.92
2018-03-31T23:49:49.799Z,18.75
2018-03-31T23:52:17.640Z,14.35
2018-03-31T23:54:45.678Z,13.10
2018-03-31T23:57:13.538Z,15.02
2018-03-31T23:59:41.399Z,12.52
